sensor_id;sensor_type;location;lat;lon;timestamp;pressure;altitude;pressure_sealevel;temperature;humidity
52653;BME280;39353;42.864;12.014;2023-08-24T00:02:03;97537.75;;;30.17;40.17
52653;BME280;39353;42.864;12.014;2023-08-24T00:04:30;97537.97;;;30.18;40.02
52653;BME280;39353;42.864;12.014;2023-08-24T00:06:58;97537.41;;;30.19;39.92
52653;BME280;39353;42.864;12.014;2023-08-24T00:09:25;97532.58;;;30.21;39.67
52653;BME280;39353;42.864;12.014;2023-08-24T00:11:53;97531.92;;;30.19;39.28
52653;BME280;39353;42.864;12.014;2023-08-24T00:14:20;97526.96;;;30.17;39.48
52653;BME280;39353;42.864;12.014;2023-08-24T00:16:47;97527.52;;;30.16;39.47
52653;BME280;39353;42.864;12.014;2023-08-24T00:19:16;97527.98;;;30.16;39.52
52653;BME280;39353;42.864;12.014;2023-08-24T00:21:43;97529.75;;;30.13;39.28
52653;BME280;39353;42.864;12.014;2023-08-24T00:24:10;97526.39;;;30.09;39.40
52653;BME280;39353;42.864;12.014;2023-08-24T00:26:37;97526.33;;;30.06;39.46
52653;BME280;39353;42.864;12.014;2023-08-24T00:29:03;97527.23;;;30.02;39.67
52653;BME280;39353;42.864;12.014;2023-08-24T00:31:31;97528.63;;;29.99;39.73
52653;BME280;39353;42.864;12.014;2023-08-24T00:33:59;97532.07;;;29.98;39.74
52653;BME280;39353;42.864;12.014;2023-08-24T00:36:26;97534.44;;;29.97;39.99
52653;BME280;39353;42.864;12.014;2023-08-24T00:38:53;97529.95;;;29.92;39.97
52653;BME280;39353;42.864;12.014;2023-08-24T00:41:21;97531.80;;;29.89;40.21
52653;BME280;39353;42.864;12.014;2023-08-24T00:43:49;97534.45;;;29.89;40.06
52653;BME280;39353;42.864;12.014;2023-08-24T00:46:18;97535.91;;;29.86;39.96
52653;BME280;39353;42.864;12.014;2023-08-24T00:48:48;97539.73;;;29.85;39.99
52653;BME280;39353;42.864;12.014;2023-08-24T00:51:16;97537.48;;;29.84;40.12
52653;BME280;39353;42.864;12.014;2023-08-24T00:53:45;97537.14;;;29.85;40.08
52653;BME280;39353;42.864;12.014;2023-08-24T00:56:13;97538.45;;;29.86;40.01
52653;BME280;39353;42.864;12.014;2023-08-24T00:58:40;97541.29;;;29.87;40.14
52653;BME280;39353;42.864;12.014;2023-08-24T01:01:08;97534.75;;;29.88;40.31
52653;BME280;39353;42.864;12.014;2023-08-24T01:03:36;97539.05;;;29.88;40.21
52653;BME280;39353;42.864;12.014;2023-08-24T01:06:03;97536.80;;;29.87;40.35
52653;BME280;39353;42.864;12.014;2023-08-24T01:08:31;97535.36;;;29.86;40.34
52653;BME280;39353;42.864;12.014;2023-08-24T01:16:28;97534.98;;;29.85;40.46
52653;BME280;39353;42.864;12.014;2023-08-24T01:18:58;97541.29;;;29.85;40.43
52653;BME280;39353;42.864;12.014;2023-08-24T01:21:27;97537.64;;;29.84;40.59
52653;BME280;39353;42.864;12.014;2023-08-24T01:27:15;97529.46;;;29.80;40.61
52653;BME280;39353;42.864;12.014;2023-08-24T01:29:42;97529.02;;;29.82;40.59
52653;BME280;39353;42.864;12.014;2023-08-24T01:32:10;97531.92;;;29.78;40.63
52653;BME280;39353;42.864;12.014;2023-08-24T01:34:38;97532.66;;;29.76;40.59
52653;BME280;39353;42.864;12.014;2023-08-24T01:37:07;97529.52;;;29.73;40.75
52653;BME280;39353;42.864;12.014;2023-08-24T01:39:46;97529.19;;;29.72;40.87
52653;BME280;39353;42.864;12.014;2023-08-24T01:42:20;97526.31;;;29.71;40.73
52653;BME280;39353;42.864;12.014;2023-08-24T01:44:52;97526.77;;;29.68;40.76
52653;BME280;39353;42.864;12.014;2023-08-24T01:47:22;97527.06;;;29.66;40.67
52653;BME280;39353;42.864;12.014;2023-08-24T01:49:51;97524.09;;;29.63;40.65
52653;BME280;39353;42.864;12.014;2023-08-24T01:52:20;97525.70;;;29.57;40.89
52653;BME280;39353;42.864;12.014;2023-08-24T01:54:48;97529.66;;;29.53;40.91
52653;BME280;39353;42.864;12.014;2023-08-24T01:57:15;97536.81;;;29.49;41.30
52653;BME280;39353;42.864;12.014;2023-08-24T01:59:42;97541.35;;;29.46;41.58
52653;BME280;39353;42.864;12.014;2023-08-24T02:02:10;97542.19;;;29.44;41.63
52653;BME280;39353;42.864;12.014;2023-08-24T02:04:37;97539.27;;;29.42;41.60
52653;BME280;39353;42.864;12.014;2023-08-24T02:07:04;97540.66;;;29.39;41.38
52653;BME280;39353;42.864;12.014;2023-08-24T02:09:31;97538.33;;;29.36;41.43
52653;BME280;39353;42.864;12.014;2023-08-24T02:11:58;97532.80;;;29.32;41.35
52653;BME280;39353;42.864;12.014;2023-08-24T02:14:25;97535.13;;;29.29;41.45
52653;BME280;39353;42.864;12.014;2023-08-24T02:16:52;97534.11;;;29.24;41.66
52653;BME280;39353;42.864;12.014;2023-08-24T02:19:19;97535.61;;;29.20;41.95
52653;BME280;39353;42.864;12.014;2023-08-24T02:21:47;97533.34;;;29.16;42.13
52653;BME280;39353;42.864;12.014;2023-08-24T02:24:14;97535.18;;;29.12;42.26
52653;BME280;39353;42.864;12.014;2023-08-24T02:26:41;97538.73;;;29.13;42.41
52653;BME280;39353;42.864;12.014;2023-08-24T02:29:08;97543.81;;;29.10;42.42
52653;BME280;39353;42.864;12.014;2023-08-24T02:31:35;97543.36;;;29.10;42.47
52653;BME280;39353;42.864;12.014;2023-08-24T02:34:02;97542.48;;;29.06;42.57
52653;BME280;39353;42.864;12.014;2023-08-24T02:36:29;97549.40;;;29.00;42.62
52653;BME280;39353;42.864;12.014;2023-08-24T02:39:00;97545.66;;;28.93;43.02
52653;BME280;39353;42.864;12.014;2023-08-24T02:41:27;97536.77;;;28.88;42.95
52653;BME280;39353;42.864;12.014;2023-08-24T02:43:54;97535.05;;;28.88;43.05
52653;BME280;39353;42.864;12.014;2023-08-24T02:46:21;97534.79;;;28.90;42.89
52653;BME280;39353;42.864;12.014;2023-08-24T02:48:49;97531.86;;;28.90;42.69
52653;BME280;39353;42.864;12.014;2023-08-24T02:51:16;97531.48;;;28.91;42.50
52653;BME280;39353;42.864;12.014;2023-08-24T02:53:43;97531.48;;;28.91;42.38
52653;BME280;39353;42.864;12.014;2023-08-24T02:56:10;97528.60;;;28.89;42.12
52653;BME280;39353;42.864;12.014;2023-08-24T02:58:38;97526.55;;;28.91;42.20
52653;BME280;39353;42.864;12.014;2023-08-24T03:01:06;97523.77;;;28.95;42.34
52653;BME280;39353;42.864;12.014;2023-08-24T03:03:36;97524.84;;;28.96;42.18
52653;BME280;39353;42.864;12.014;2023-08-24T03:06:06;97529.91;;;28.96;42.05
52653;BME280;39353;42.864;12.014;2023-08-24T03:08:35;97523.57;;;28.94;42.12
52653;BME280;39353;42.864;12.014;2023-08-24T03:11:03;97523.29;;;28.94;42.13
52653;BME280;39353;42.864;12.014;2023-08-24T03:13:31;97521.52;;;28.91;41.89
52653;BME280;39353;42.864;12.014;2023-08-24T03:16:03;97518.11;;;28.87;41.85
52653;BME280;39353;42.864;12.014;2023-08-24T03:18:30;97518.06;;;28.86;41.88
52653;BME280;39353;42.864;12.014;2023-08-24T03:20:58;97517.73;;;28.83;41.78
52653;BME280;39353;42.864;12.014;2023-08-24T03:23:25;97517.79;;;28.79;42.08
52653;BME280;39353;42.864;12.014;2023-08-24T03:25:52;97520.88;;;28.78;42.26
52653;BME280;39353;42.864;12.014;2023-08-24T03:28:20;97523.04;;;28.79;42.44
52653;BME280;39353;42.864;12.014;2023-08-24T03:30:50;97524.52;;;28.78;42.36
52653;BME280;39353;42.864;12.014;2023-08-24T03:33:17;97528.05;;;28.77;42.40
52653;BME280;39353;42.864;12.014;2023-08-24T03:35:45;97529.92;;;28.75;42.53
52653;BME280;39353;42.864;12.014;2023-08-24T03:38:13;97532.73;;;28.72;42.74
52653;BME280;39353;42.864;12.014;2023-08-24T03:40:40;97537.71;;;28.71;42.78
52653;BME280;39353;42.864;12.014;2023-08-24T03:43:07;97537.55;;;28.69;42.70
52653;BME280;39353;42.864;12.014;2023-08-24T03:45:34;97538.81;;;28.70;42.88
52653;BME280;39353;42.864;12.014;2023-08-24T03:48:01;97536.33;;;28.72;42.79
52653;BME280;39353;42.864;12.014;2023-08-24T03:50:29;97535.84;;;28.71;42.77
52653;BME280;39353;42.864;12.014;2023-08-24T03:52:56;97533.12;;;28.69;42.68
52653;BME280;39353;42.864;12.014;2023-08-24T03:55:24;97535.39;;;28.68;42.57
52653;BME280;39353;42.864;12.014;2023-08-24T03:57:51;97535.06;;;28.66;42.49
52653;BME280;39353;42.864;12.014;2023-08-24T04:00:21;97535.17;;;28.65;42.47
52653;BME280;39353;42.864;12.014;2023-08-24T04:02:48;97538.48;;;28.63;42.47
52653;BME280;39353;42.864;12.014;2023-08-24T04:05:21;97537.60;;;28.63;42.32
52653;BME280;39353;42.864;12.014;2023-08-24T04:07:48;97535.22;;;28.62;42.36
52653;BME280;39353;42.864;12.014;2023-08-24T04:10:15;97536.33;;;28.62;42.55
52653;BME280;39353;42.864;12.014;2023-08-24T04:12:42;97533.29;;;28.63;42.59
52653;BME280;39353;42.864;12.014;2023-08-24T04:15:10;97537.83;;;28.63;42.63
52653;BME280;39353;42.864;12.014;2023-08-24T04:17:38;97537.22;;;28.64;42.60
52653;BME280;39353;42.864;12.014;2023-08-24T04:20:05;97540.80;;;28.64;42.54
52653;BME280;39353;42.864;12.014;2023-08-24T04:22:33;97545.16;;;28.65;42.64
52653;BME280;39353;42.864;12.014;2023-08-24T04:25:00;97548.75;;;28.64;42.69
52653;BME280;39353;42.864;12.014;2023-08-24T04:27:28;97548.86;;;28.60;42.53
52653;BME280;39353;42.864;12.014;2023-08-24T04:29:55;97549.08;;;28.56;42.72
52653;BME280;39353;42.864;12.014;2023-08-24T04:32:22;97551.28;;;28.53;42.79
52653;BME280;39353;42.864;12.014;2023-08-24T04:34:49;97554.38;;;28.51;42.75
52653;BME280;39353;42.864;12.014;2023-08-24T04:37:17;97558.29;;;28.49;42.71
52653;BME280;39353;42.864;12.014;2023-08-24T04:39:44;97560.43;;;28.49;42.74
52653;BME280;39353;42.864;12.014;2023-08-24T04:42:11;97557.91;;;28.49;42.61
52653;BME280;39353;42.864;12.014;2023-08-24T04:44:38;97556.08;;;28.49;42.53
52653;BME280;39353;42.864;12.014;2023-08-24T04:47:06;97554.59;;;28.48;42.48
52653;BME280;39353;42.864;12.014;2023-08-24T04:49:33;97559.84;;;28.48;42.42
52653;BME280;39353;42.864;12.014;2023-08-24T04:52:00;97561.67;;;28.47;42.56
52653;BME280;39353;42.864;12.014;2023-08-24T04:54:27;97562.39;;;28.47;42.48
52653;BME280;39353;42.864;12.014;2023-08-24T04:56:54;97564.98;;;28.49;42.39
52653;BME280;39353;42.864;12.014;2023-08-24T04:59:21;97568.27;;;28.49;42.35
52653;BME280;39353;42.864;12.014;2023-08-24T05:01:47;97572.25;;;28.48;42.52
52653;BME280;39353;42.864;12.014;2023-08-24T05:04:15;97574.20;;;28.46;42.95
52653;BME280;39353;42.864;12.014;2023-08-24T05:06:42;97580.43;;;28.41;43.58
52653;BME280;39353;42.864;12.014;2023-08-24T05:09:09;97581.02;;;28.36;43.77
52653;BME280;39353;42.864;12.014;2023-08-24T05:11:36;97577.33;;;28.32;43.54
52653;BME280;39353;42.864;12.014;2023-08-24T05:14:06;97578.81;;;28.31;42.52
52653;BME280;39353;42.864;12.014;2023-08-24T05:16:33;97581.13;;;28.28;42.19
52653;BME280;39353;42.864;12.014;2023-08-24T05:19:00;97582.67;;;28.25;42.64
52653;BME280;39353;42.864;12.014;2023-08-24T05:21:28;97577.96;;;28.23;42.98
52653;BME280;39353;42.864;12.014;2023-08-24T05:23:56;97583.31;;;28.22;42.85
52653;BME280;39353;42.864;12.014;2023-08-24T05:26:22;97577.09;;;28.21;42.67
52653;BME280;39353;42.864;12.014;2023-08-24T05:28:53;97575.37;;;28.21;42.12
52653;BME280;39353;42.864;12.014;2023-08-24T05:31:20;97576.15;;;28.22;42.11
52653;BME280;39353;42.864;12.014;2023-08-24T05:33:47;97578.73;;;28.23;42.28
52653;BME280;39353;42.864;12.014;2023-08-24T05:36:14;97582.71;;;28.23;42.57
52653;BME280;39353;42.864;12.014;2023-08-24T05:38:41;97588.99;;;28.22;42.45
52653;BME280;39353;42.864;12.014;2023-08-24T05:41:13;97589.49;;;28.23;42.16
52653;BME280;39353;42.864;12.014;2023-08-24T05:43:40;97592.20;;;28.24;42.58
52653;BME280;39353;42.864;12.014;2023-08-24T05:46:08;97588.52;;;28.25;42.73
52653;BME280;39353;42.864;12.014;2023-08-24T05:48:36;97591.45;;;28.27;43.01
52653;BME280;39353;42.864;12.014;2023-08-24T05:51:03;97596.52;;;28.28;43.18
52653;BME280;39353;42.864;12.014;2023-08-24T05:53:32;97600.95;;;28.31;43.35
52653;BME280;39353;42.864;12.014;2023-08-24T05:55:59;97602.38;;;28.35;43.69
52653;BME280;39353;42.864;12.014;2023-08-24T05:58:26;97604.09;;;28.33;43.72
52653;BME280;39353;42.864;12.014;2023-08-24T06:01:00;97601.38;;;28.29;43.39
52653;BME280;39353;42.864;12.014;2023-08-24T06:03:27;97600.71;;;28.27;43.30
52653;BME280;39353;42.864;12.014;2023-08-24T06:06:00;97600.83;;;28.27;43.31
52653;BME280;39353;42.864;12.014;2023-08-24T06:08:28;97602.55;;;28.28;43.56
52653;BME280;39353;42.864;12.014;2023-08-24T06:10:57;97603.53;;;28.33;43.88
52653;BME280;39353;42.864;12.014;2023-08-24T06:13:24;97603.70;;;28.36;44.11
52653;BME280;39353;42.864;12.014;2023-08-24T06:15:52;97601.79;;;28.39;44.63
52653;BME280;39353;42.864;12.014;2023-08-24T06:18:19;97602.95;;;28.43;44.36
52653;BME280;39353;42.864;12.014;2023-08-24T06:20:46;97605.66;;;28.47;44.35
52653;BME280;39353;42.864;12.014;2023-08-24T06:23:19;97606.70;;;28.48;43.69
52653;BME280;39353;42.864;12.014;2023-08-24T06:25:46;97611.02;;;28.47;43.39
52653;BME280;39353;42.864;12.014;2023-08-24T06:28:14;97612.77;;;28.49;43.42
52653;BME280;39353;42.864;12.014;2023-08-24T06:30:42;97611.90;;;28.51;43.17
52653;BME280;39353;42.864;12.014;2023-08-24T06:33:10;97609.80;;;28.53;43.72
52653;BME280;39353;42.864;12.014;2023-08-24T06:35:37;97610.42;;;28.59;43.85
52653;BME280;39353;42.864;12.014;2023-08-24T06:38:04;97606.61;;;28.64;43.95
52653;BME280;39353;42.864;12.014;2023-08-24T06:40:31;97609.77;;;28.69;43.83
52653;BME280;39353;42.864;12.014;2023-08-24T06:42:59;97611.27;;;28.76;43.68
52653;BME280;39353;42.864;12.014;2023-08-24T06:45:26;97610.67;;;28.83;43.68
52653;BME280;39353;42.864;12.014;2023-08-24T06:47:53;97610.80;;;28.86;43.82
52653;BME280;39353;42.864;12.014;2023-08-24T06:50:21;97612.21;;;28.88;44.23
52653;BME280;39353;42.864;12.014;2023-08-24T06:52:48;97613.05;;;28.88;44.02
52653;BME280;39353;42.864;12.014;2023-08-24T06:55:15;97614.65;;;28.88;43.83
52653;BME280;39353;42.864;12.014;2023-08-24T06:57:48;97613.44;;;28.89;43.96
52653;BME280;39353;42.864;12.014;2023-08-24T07:00:17;97614.61;;;28.91;44.86
52653;BME280;39353;42.864;12.014;2023-08-24T07:02:44;97618.02;;;28.94;45.21
52653;BME280;39353;42.864;12.014;2023-08-24T07:05:11;97612.29;;;28.97;45.31
52653;BME280;39353;42.864;12.014;2023-08-24T07:07:39;97614.47;;;29.02;45.62
52653;BME280;39353;42.864;12.014;2023-08-24T07:10:08;97615.30;;;29.07;44.98
52653;BME280;39353;42.864;12.014;2023-08-24T07:12:35;97614.70;;;29.10;44.70
52653;BME280;39353;42.864;12.014;2023-08-24T07:15:02;97615.67;;;29.15;44.47
52653;BME280;39353;42.864;12.014;2023-08-24T07:17:29;97616.55;;;29.22;44.74
52653;BME280;39353;42.864;12.014;2023-08-24T07:19:56;97618.94;;;29.23;44.69
52653;BME280;39353;42.864;12.014;2023-08-24T07:22:23;97616.17;;;29.25;45.09
52653;BME280;39353;42.864;12.014;2023-08-24T07:24:53;97613.17;;;29.29;44.35
52653;BME280;39353;42.864;12.014;2023-08-24T07:27:20;97615.20;;;29.28;44.00
52653;BME280;39353;42.864;12.014;2023-08-24T07:29:47;97615.77;;;29.29;43.79
52653;BME280;39353;42.864;12.014;2023-08-24T07:32:15;97615.16;;;29.31;43.76
52653;BME280;39353;42.864;12.014;2023-08-24T07:34:42;97615.55;;;29.38;43.63
52653;BME280;39353;42.864;12.014;2023-08-24T07:37:10;97618.20;;;29.44;43.60
52653;BME280;39353;42.864;12.014;2023-08-24T07:39:37;97613.77;;;29.49;43.82
52653;BME280;39353;42.864;12.014;2023-08-24T07:42:05;97614.59;;;29.53;43.68
52653;BME280;39353;42.864;12.014;2023-08-24T07:44:32;97615.88;;;29.61;43.54
52653;BME280;39353;42.864;12.014;2023-08-24T07:46:59;97616.73;;;29.71;43.44
52653;BME280;39353;42.864;12.014;2023-08-24T07:49:26;97618.98;;;29.79;43.64
52653;BME280;39353;42.864;12.014;2023-08-24T07:51:53;97618.90;;;29.82;43.82
52653;BME280;39353;42.864;12.014;2023-08-24T07:54:20;97617.34;;;29.87;43.66
52653;BME280;39353;42.864;12.014;2023-08-24T07:56:47;97624.67;;;29.90;43.57
52653;BME280;39353;42.864;12.014;2023-08-24T07:59:14;97625.26;;;29.95;43.34
52653;BME280;39353;42.864;12.014;2023-08-24T08:01:41;97631.75;;;30.00;43.36
52653;BME280;39353;42.864;12.014;2023-08-24T08:04:08;97632.36;;;30.02;43.17
52653;BME280;39353;42.864;12.014;2023-08-24T08:06:35;97631.35;;;30.03;42.74
52653;BME280;39353;42.864;12.014;2023-08-24T08:09:02;97629.31;;;30.04;42.69
52653;BME280;39353;42.864;12.014;2023-08-24T08:11:29;97628.02;;;30.06;42.08
52653;BME280;39353;42.864;12.014;2023-08-24T08:13:57;97621.33;;;30.06;42.06
52653;BME280;39353;42.864;12.014;2023-08-24T08:16:24;97622.54;;;30.07;42.05
52653;BME280;39353;42.864;12.014;2023-08-24T08:18:51;97619.64;;;30.07;42.20
52653;BME280;39353;42.864;12.014;2023-08-24T08:21:18;97619.57;;;30.12;42.30
52653;BME280;39353;42.864;12.014;2023-08-24T08:23:46;97618.66;;;30.16;41.86
52653;BME280;39353;42.864;12.014;2023-08-24T08:26:13;97620.72;;;30.16;41.84
52653;BME280;39353;42.864;12.014;2023-08-24T08:28:40;97618.55;;;30.18;41.34
52653;BME280;39353;42.864;12.014;2023-08-24T08:31:08;97615.98;;;30.21;41.16
52653;BME280;39353;42.864;12.014;2023-08-24T08:33:35;97613.35;;;30.27;41.09
52653;BME280;39353;42.864;12.014;2023-08-24T08:36:02;97613.44;;;30.32;40.93
52653;BME280;39353;42.864;12.014;2023-08-24T08:38:30;97611.64;;;30.34;40.51
52653;BME280;39353;42.864;12.014;2023-08-24T08:41:03;97612.52;;;30.35;40.17
52653;BME280;39353;42.864;12.014;2023-08-24T08:43:31;97611.41;;;30.33;40.16
52653;BME280;39353;42.864;12.014;2023-08-24T08:46:00;97608.97;;;30.35;40.13
52653;BME280;39353;42.864;12.014;2023-08-24T08:48:30;97611.50;;;30.40;40.22
52653;BME280;39353;42.864;12.014;2023-08-24T08:50:58;97612.42;;;30.42;40.18
52653;BME280;39353;42.864;12.014;2023-08-24T08:53:25;97613.46;;;30.44;40.11
52653;BME280;39353;42.864;12.014;2023-08-24T08:55:54;97612.89;;;30.46;40.22
52653;BME280;39353;42.864;12.014;2023-08-24T08:58:21;97613.75;;;30.50;40.41
52653;BME280;39353;42.864;12.014;2023-08-24T09:00:49;97615.23;;;30.55;40.52
52653;BME280;39353;42.864;12.014;2023-08-24T09:03:18;97614.59;;;30.60;40.43
52653;BME280;39353;42.864;12.014;2023-08-24T09:05:46;97616.46;;;30.63;40.66
52653;BME280;39353;42.864;12.014;2023-08-24T09:08:17;97618.83;;;30.66;40.56
52653;BME280;39353;42.864;12.014;2023-08-24T09:10:46;97615.48;;;30.67;40.83
52653;BME280;39353;42.864;12.014;2023-08-24T09:13:14;97618.00;;;30.72;40.41
52653;BME280;39353;42.864;12.014;2023-08-24T09:15:41;97619.58;;;30.75;40.19
52653;BME280;39353;42.864;12.014;2023-08-24T09:18:08;97615.30;;;30.78;40.10
52653;BME280;39353;42.864;12.014;2023-08-24T09:20:36;97615.70;;;30.84;40.01
52653;BME280;39353;42.864;12.014;2023-08-24T09:23:03;97614.02;;;30.90;40.16
52653;BME280;39353;42.864;12.014;2023-08-24T09:25:30;97614.23;;;30.92;40.22
52653;BME280;39353;42.864;12.014;2023-08-24T09:28:03;97610.00;;;30.96;40.10
52653;BME280;39353;42.864;12.014;2023-08-24T09:30:31;97611.98;;;31.03;40.35
52653;BME280;39353;42.864;12.014;2023-08-24T09:33:02;97605.84;;;31.08;40.04
52653;BME280;39353;42.864;12.014;2023-08-24T09:35:34;97608.76;;;31.11;39.92
52653;BME280;39353;42.864;12.014;2023-08-24T09:40:47;97600.02;;;31.17;39.92
52653;BME280;39353;42.864;12.014;2023-08-24T09:43:18;97596.91;;;31.18;40.03
52653;BME280;39353;42.864;12.014;2023-08-24T09:46:03;97599.05;;;31.19;40.48
52653;BME280;39353;42.864;12.014;2023-08-24T09:48:31;97595.11;;;31.20;40.35
52653;BME280;39353;42.864;12.014;2023-08-24T09:51:02;97591.52;;;31.19;40.37
52653;BME280;39353;42.864;12.014;2023-08-24T09:53:33;97590.42;;;31.17;40.52
52653;BME280;39353;42.864;12.014;2023-08-24T09:59:00;97592.38;;;31.22;40.42
52653;BME280;39353;42.864;12.014;2023-08-24T10:01:32;97586.85;;;31.21;40.24
52653;BME280;39353;42.864;12.014;2023-08-24T10:04:05;97585.01;;;31.22;40.12
52653;BME280;39353;42.864;12.014;2023-08-24T10:06:36;97586.98;;;31.23;40.00
52653;BME280;39353;42.864;12.014;2023-08-24T10:09:07;97584.31;;;31.24;39.86
52653;BME280;39353;42.864;12.014;2023-08-24T10:11:44;97586.08;;;31.25;40.11
52653;BME280;39353;42.864;12.014;2023-08-24T10:14:44;97585.58;;;31.25;39.98
52653;BME280;39353;42.864;12.014;2023-08-24T10:17:09;97581.40;;;31.27;39.96
52653;BME280;39353;42.864;12.014;2023-08-24T10:19:40;97577.95;;;31.33;39.65
52653;BME280;39353;42.864;12.014;2023-08-24T10:22:09;97577.23;;;31.43;39.22
52653;BME280;39353;42.864;12.014;2023-08-24T10:24:37;97573.45;;;31.49;38.87
52653;BME280;39353;42.864;12.014;2023-08-24T10:27:05;97567.67;;;31.55;38.79
52653;BME280;39353;42.864;12.014;2023-08-24T10:29:35;97566.48;;;31.58;38.98
52653;BME280;39353;42.864;12.014;2023-08-24T10:32:04;97563.83;;;31.65;38.95
52653;BME280;39353;42.864;12.014;2023-08-24T10:34:32;97561.71;;;31.71;38.66
52653;BME280;39353;42.864;12.014;2023-08-24T10:37:09;97557.03;;;31.75;38.56
52653;BME280;39353;42.864;12.014;2023-08-24T10:39:44;97549.80;;;31.77;38.62
52653;BME280;39353;42.864;12.014;2023-08-24T10:42:13;97551.12;;;31.78;38.61
52653;BME280;39353;42.864;12.014;2023-08-24T10:44:47;97544.75;;;31.76;38.24
52653;BME280;39353;42.864;12.014;2023-08-24T10:47:21;97543.56;;;31.78;38.18
52653;BME280;39353;42.864;12.014;2023-08-24T10:49:57;97541.30;;;31.82;37.98
52653;BME280;39353;42.864;12.014;2023-08-24T10:52:31;97541.77;;;31.89;38.16
52653;BME280;39353;42.864;12.014;2023-08-24T10:55:01;97541.77;;;31.95;37.78
52653;BME280;39353;42.864;12.014;2023-08-24T10:57:37;97536.55;;;31.99;37.78
52653;BME280;39353;42.864;12.014;2023-08-24T11:00:12;97534.46;;;32.03;37.37
52653;BME280;39353;42.864;12.014;2023-08-24T11:02:44;97535.15;;;32.05;37.06
52653;BME280;39353;42.864;12.014;2023-08-24T11:05:29;97536.19;;;32.05;36.60
52653;BME280;39353;42.864;12.014;2023-08-24T11:08:02;97531.09;;;32.05;36.55
52653;BME280;39353;42.864;12.014;2023-08-24T11:13:10;97536.52;;;32.09;36.64
52653;BME280;39353;42.864;12.014;2023-08-24T11:20:55;97534.27;;;32.12;37.15
52653;BME280;39353;42.864;12.014;2023-08-24T11:23:24;97533.75;;;32.17;36.84
52653;BME280;39353;42.864;12.014;2023-08-24T11:25:54;97532.86;;;32.19;37.11
52653;BME280;39353;42.864;12.014;2023-08-24T11:28:29;97527.94;;;32.22;36.64
52653;BME280;39353;42.864;12.014;2023-08-24T11:30:58;97524.13;;;32.24;37.28
52653;BME280;39353;42.864;12.014;2023-08-24T11:33:29;97525.95;;;32.27;37.20
52653;BME280;39353;42.864;12.014;2023-08-24T11:35:58;97528.02;;;32.30;36.96
52653;BME280;39353;42.864;12.014;2023-08-24T11:38:35;97529.55;;;32.32;36.72
52653;BME280;39353;42.864;12.014;2023-08-24T11:41:13;97525.49;;;32.32;36.76
52653;BME280;39353;42.864;12.014;2023-08-24T11:43:42;97521.98;;;32.33;36.71
52653;BME280;39353;42.864;12.014;2023-08-24T11:46:09;97522.89;;;32.35;36.51
52653;BME280;39353;42.864;12.014;2023-08-24T11:48:38;97519.75;;;32.34;36.91
52653;BME280;39353;42.864;12.014;2023-08-24T11:51:13;97517.64;;;32.30;36.88
52653;BME280;39353;42.864;12.014;2023-08-24T11:53:42;97511.29;;;32.32;37.09
52653;BME280;39353;42.864;12.014;2023-08-24T11:56:13;97513.90;;;32.31;37.50
52653;BME280;39353;42.864;12.014;2023-08-24T11:58:42;97510.62;;;32.35;36.97
52653;BME280;39353;42.864;12.014;2023-08-24T12:01:11;97507.44;;;32.36;37.01
52653;BME280;39353;42.864;12.014;2023-08-24T12:03:39;97508.02;;;32.39;36.95
52653;BME280;39353;42.864;12.014;2023-08-24T12:06:14;97502.98;;;32.41;37.04
52653;BME280;39353;42.864;12.014;2023-08-24T12:08:45;97496.34;;;32.43;36.88
52653;BME280;39353;42.864;12.014;2023-08-24T12:11:12;97494.19;;;32.48;36.27
52653;BME280;39353;42.864;12.014;2023-08-24T12:13:45;97492.54;;;32.51;36.15
52653;BME280;39353;42.864;12.014;2023-08-24T12:16:13;97490.84;;;32.56;35.99
52653;BME280;39353;42.864;12.014;2023-08-24T12:18:51;97491.73;;;32.61;36.20
52653;BME280;39353;42.864;12.014;2023-08-24T12:21:22;97493.11;;;32.66;36.18
52653;BME280;39353;42.864;12.014;2023-08-24T12:24:04;97488.47;;;32.68;36.10
52653;BME280;39353;42.864;12.014;2023-08-24T12:26:36;97484.70;;;32.67;35.73
52653;BME280;39353;42.864;12.014;2023-08-24T12:29:06;97483.42;;;32.67;35.70
52653;BME280;39353;42.864;12.014;2023-08-24T12:31:34;97483.13;;;32.69;35.53
52653;BME280;39353;42.864;12.014;2023-08-24T12:34:06;97479.23;;;32.71;35.59
52653;BME280;39353;42.864;12.014;2023-08-24T12:36:37;97480.18;;;32.77;35.57
52653;BME280;39353;42.864;12.014;2023-08-24T12:39:10;97475.60;;;32.82;35.13
52653;BME280;39353;42.864;12.014;2023-08-24T12:41:39;97469.53;;;32.87;34.64
52653;BME280;39353;42.864;12.014;2023-08-24T12:44:07;97467.03;;;32.93;34.37
52653;BME280;39353;42.864;12.014;2023-08-24T12:46:34;97466.20;;;32.97;34.54
52653;BME280;39353;42.864;12.014;2023-08-24T12:49:02;97461.65;;;32.96;34.34
52653;BME280;39353;42.864;12.014;2023-08-24T12:51:30;97458.02;;;32.97;34.13
52653;BME280;39353;42.864;12.014;2023-08-24T12:53:57;97456.19;;;32.97;34.19
52653;BME280;39353;42.864;12.014;2023-08-24T12:56:24;97452.37;;;33.01;34.09
52653;BME280;39353;42.864;12.014;2023-08-24T12:58:50;97446.63;;;33.02;34.23
52653;BME280;39353;42.864;12.014;2023-08-24T13:01:18;97450.37;;;33.01;34.18
52653;BME280;39353;42.864;12.014;2023-08-24T13:03:45;97448.10;;;33.02;34.22
52653;BME280;39353;42.864;12.014;2023-08-24T13:06:12;97444.55;;;33.05;34.33
52653;BME280;39353;42.864;12.014;2023-08-24T13:08:39;97443.82;;;33.05;34.46
52653;BME280;39353;42.864;12.014;2023-08-24T13:11:06;97443.30;;;33.07;34.28
52653;BME280;39353;42.864;12.014;2023-08-24T13:13:33;97441.65;;;33.12;33.91
52653;BME280;39353;42.864;12.014;2023-08-24T13:16:00;97439.59;;;33.12;34.05
52653;BME280;39353;42.864;12.014;2023-08-24T13:18:28;97437.70;;;33.15;33.71
52653;BME280;39353;42.864;12.014;2023-08-24T13:20:55;97433.30;;;33.20;33.45